Time;durP1;ratioP1;P1;durP2;ratioP2;P2;SDS_P1;SDS_P2;PMS_P1;PMS_P2;Temp;Humidity;BMP_temperature;BMP_pressure;BME280_temperature;BME280_humidity;BME280_pressure;Samples;Min_cycle;Max_cycle;Signal;HPM_P1;HPM_P2
2023/05/08 00:01:46;;;;;;;12.63;11.33;;;;;;;8.23;nan;99971.69;6160867;23;20169;-87
2023/05/08 00:04:14;;;;;;;12.83;11.63;;;;;;;8.10;nan;99976.94;6135780;23;20185;-87
2023/05/08 00:06:41;;;;;;;12.87;11.67;;;;;;;8.12;nan;99982.91;6160532;23;20201;-90
2023/05/08 00:09:10;;;;;;;13.50;12.20;;;;;;;8.12;nan;99972.25;6136004;23;20174;-84
2023/05/08 00:11:37;;;;;;;13.50;12.17;;;;;;;8.18;nan;99966.94;6160876;23;20177;-86
2023/05/08 00:14:03;;;;;;;13.40;12.10;;;;;;;8.09;nan;99975.28;6111752;23;20174;-86
2023/05/08 00:16:31;;;;;;;12.53;11.43;;;;;;;7.98;nan;99973.97;6136294;23;20190;-87
2023/05/08 00:18:59;;;;;;;12.90;11.70;;;;;;;8.05;nan;99971.34;6135951;23;20174;-86
2023/05/08 00:21:26;;;;;;;12.67;11.37;;;;;;;8.01;nan;99975.44;6160576;23;20174;-86
2023/05/08 00:23:52;;;;;;;13.03;11.83;;;;;;;7.96;nan;99973.34;6135654;23;20178;-87
2023/05/08 00:26:20;;;;;;;13.27;12.07;;;;;;;8.09;nan;99968.09;6135803;23;20175;-85
2023/05/08 00:28:47;;;;;;;13.77;12.47;;;;;;;8.01;nan;99968.25;6112313;23;20176;-86
2023/05/08 00:31:14;;;;;;;12.30;11.20;;;;;;;8.02;nan;99969.09;6135718;23;20181;-87
2023/05/08 00:33:40;;;;;;;12.57;11.47;;;;;;;8.00;nan;99973.78;6135806;23;20189;-89
2023/05/08 00:36:09;;;;;;;12.20;10.93;;;;;;;7.93;nan;99960.41;6136120;23;20170;-89
2023/05/08 00:38:36;;;;;;;11.90;10.90;;;;;;;7.96;nan;99966.19;6136154;23;20191;-86
2023/05/08 00:41:03;;;;;;;11.77;10.60;;;;;;;7.87;nan;99974.50;6160753;23;20177;-88
2023/05/08 00:43:30;;;;;;;11.97;10.87;;;;;;;7.86;nan;99970.19;6112017;23;20631;-87
2023/05/08 00:45:58;;;;;;;10.63;9.63;;;;;;;7.94;nan;99970.03;6136133;23;20169;-86
2023/05/08 00:48:31;;;;;;;10.90;9.90;;;;;;;7.94;nan;99972.72;6136297;23;20270;-88
2023/05/08 00:50:59;;;;;;;11.57;10.47;;;;;;;7.88;nan;99982.34;6111878;23;20195;-87
2023/05/08 00:53:26;;;;;;;12.30;11.13;;;;;;;8.03;nan;99976.03;6136104;23;20175;-87
2023/05/08 00:55:53;;;;;;;11.37;10.30;;;;;;;7.97;nan;99975.84;6136501;23;20156;-86
2023/05/08 00:58:21;;;;;;;11.67;10.57;;;;;;;8.01;nan;99978.09;6135766;23;20217;-87
2023/05/08 01:00:50;;;;;;;10.93;9.83;;;;;;;8.06;nan;99986.34;6136772;23;20171;-86
2023/05/08 01:03:17;;;;;;;10.93;9.93;;;;;;;7.87;nan;99988.69;6111644;23;20170;-86
2023/05/08 01:05:45;;;;;;;10.63;9.73;;;;;;;7.89;nan;99993.81;6135880;23;20201;-88
2023/05/08 01:08:12;;;;;;;10.20;9.20;;;;;;;7.94;nan;99984.22;6111333;23;20171;-89
2023/05/08 01:10:47;;;;;;;10.10;8.60;;;;;;;7.81;nan;99985.94;6135788;23;20170;-89
2023/05/08 01:13:39;;;;;;;9.87;8.97;;;;;;;7.85;nan;99988.03;6111665;23;20196;-89
2023/05/08 01:16:14;;;;;;;9.67;8.77;;;;;;;7.87;nan;99995.84;6160675;23;20161;-90
2023/05/08 01:18:49;;;;;;;9.27;8.33;;;;;;;7.94;nan;99986.03;6112253;23;20560;-86
2023/05/08 01:21:24;;;;;;;9.60;8.57;;;;;;;8.01;nan;99992.28;6111794;23;20170;-90
2023/05/08 01:23:55;;;;;;;9.13;8.33;;;;;;;8.00;nan;99982.63;6135567;23;20612;-87
2023/05/08 01:27:13;;;;;;;9.00;8.20;;;;;;;7.93;nan;99989.75;6162325;23;20188;-87
2023/05/08 01:29:47;;;;;;;9.33;8.37;;;;;;;8.26;nan;99993.47;6073167;23;20255;-88
2023/05/08 01:32:45;;;;;;;8.90;8.00;;;;;;;8.08;nan;99987.78;6124893;23;20171;-89
2023/05/08 01:35:26;;;;;;;9.00;8.17;;;;;;;8.16;nan;99994.84;6107972;23;20172;-86
2023/05/08 01:38:02;;;;;;;8.70;7.90;;;;;;;8.03;nan;99984.88;6137782;23;20242;-88
2023/05/08 01:40:51;;;;;;;9.30;8.40;;;;;;;8.18;nan;99990.13;6137910;23;20180;-89
2023/05/08 01:43:30;;;;;;;8.70;7.80;;;;;;;8.27;nan;99996.94;6113018;23;20236;-87
2023/05/08 01:46:03;;;;;;;8.80;8.00;;;;;;;8.10;nan;99995.63;6137745;23;20157;-87
2023/05/08 01:48:33;;;;;;;8.83;8.03;;;;;;;8.13;nan;100004.03;6162916;23;20181;-87
2023/05/08 01:51:11;;;;;;;8.83;8.03;;;;;;;8.26;nan;99996.13;6113623;23;20178;-88
2023/05/08 01:53:43;;;;;;;9.50;8.60;;;;;;;8.35;nan;99997.66;6137766;23;20193;-90
2023/05/08 01:56:13;;;;;;;8.47;7.67;;;;;;;8.32;nan;99998.06;6112725;23;20618;-87
2023/05/08 01:58:40;;;;;;;8.10;7.40;;;;;;;8.24;nan;99995.50;6113252;23;20205;-89
2023/05/08 02:01:08;;;;;;;8.93;8.13;;;;;;;8.27;nan;99995.09;6137591;23;20181;-87
2023/05/08 02:03:36;;;;;;;8.63;7.90;;;;;;;8.34;nan;100004.03;6112682;23;20213;-86
2023/05/08 02:06:05;;;;;;;9.00;8.10;;;;;;;8.49;nan;99993.22;6138481;23;20168;-87
2023/05/08 02:08:33;;;;;;;10.50;7.97;;;;;;;8.14;nan;99992.34;6137243;23;20176;-86
2023/05/08 02:11:03;;;;;;;8.90;8.10;;;;;;;8.27;nan;99994.28;6137640;23;20249;-89
2023/05/08 02:13:31;;;;;;;9.03;7.83;;;;;;;8.27;nan;99995.09;6113239;23;20170;-89
2023/05/08 02:15:58;;;;;;;9.00;8.30;;;;;;;8.34;nan;99987.19;6137070;23;20609;-86
2023/05/08 02:18:25;;;;;;;8.60;7.90;;;;;;;8.34;nan;99993.34;6137377;23;20198;-87
2023/05/08 02:20:53;;;;;;;8.57;7.77;;;;;;;8.44;nan;99998.34;6113291;23;20170;-89
2023/05/08 02:23:21;;;;;;;9.20;8.33;;;;;;;8.41;nan;100004.06;6113151;23;20181;-86
2023/05/08 02:25:48;;;;;;;8.17;7.47;;;;;;;8.43;nan;99998.53;6134939;23;20210;-86
2023/05/08 02:28:16;;;;;;;8.70;7.87;;;;;;;8.30;nan;100000.13;6137344;23;20216;-85
2023/05/08 02:30:44;;;;;;;9.03;8.23;;;;;;;8.26;nan;99996.13;6137904;23;20170;-87
2023/05/08 02:33:11;;;;;;;9.23;8.30;;;;;;;8.32;nan;100011.41;6137121;23;20621;-87
2023/05/08 02:35:40;;;;;;;8.93;8.13;;;;;;;8.27;nan;100005.78;6137671;23;20177;-86
2023/05/08 02:38:09;;;;;;;9.73;8.80;;;;;;;8.27;nan;100010.31;6137614;23;20186;-86
2023/05/08 02:40:38;;;;;;;9.27;8.47;;;;;;;8.24;nan;100006.19;6161864;23;20166;-87
2023/05/08 02:43:12;;;;;;;10.13;9.17;;;;;;;8.30;nan;100000.13;6137417;23;20177;-88
2023/05/08 02:45:44;;;;;;;9.50;8.70;;;;;;;8.46;nan;100012.31;6137589;23;20198;-85
2023/05/08 02:48:20;;;;;;;10.13;9.23;;;;;;;8.38;nan;100010.63;6136978;23;20233;-85
2023/05/08 02:50:56;;;;;;;9.73;8.83;;;;;;;8.36;nan;100015.31;6161675;23;20241;-86
2023/05/08 02:53:28;;;;;;;10.20;9.30;;;;;;;8.35;nan;100004.88;6161670;23;20236;-86
2023/05/08 02:56:29;;;;;;;10.07;9.17;;;;;;;8.36;nan;100012.66;6137245;23;20171;-86
2023/05/08 02:59:15;;;;;;;9.70;8.80;;;;;;;8.57;nan;100010.94;6148162;23;20206;-85
2023/05/08 03:02:03;;;;;;;9.33;8.43;;;;;;;8.43;nan;100026.06;6137038;23;20155;-86
2023/05/08 03:04:34;;;;;;;10.50;9.57;;;;;;;8.46;nan;100017.66;6137508;23;20170;-86
2023/05/08 03:07:02;;;;;;;10.33;9.03;;;;;;;8.42;nan;100013.72;6137035;23;20249;-87
2023/05/08 03:09:38;;;;;;;10.17;9.27;;;;;;;8.32;nan;100016.75;6161654;23;20253;-85
2023/05/08 03:12:19;;;;;;;10.10;9.10;;;;;;;8.29;nan;100011.81;6137114;23;20220;-86
2023/05/08 03:15:03;;;;;;;10.37;9.47;;;;;;;8.37;nan;100016.97;6136823;23;20239;-85
2023/05/08 03:17:32;;;;;;;10.33;9.43;;;;;;;8.40;nan;100024.59;6136670;23;20217;-86
2023/05/08 03:20:04;;;;;;;10.97;9.97;;;;;;;8.53;nan;100023.88;6137083;23;20224;-85
2023/05/08 03:22:34;;;;;;;10.50;9.60;;;;;;;8.30;nan;100013.47;6136431;23;20371;-86
2023/05/08 03:25:01;;;;;;;10.63;9.63;;;;;;;8.33;nan;100017.56;6174354;23;20194;-86
2023/05/08 03:27:31;;;;;;;10.80;9.80;;;;;;;8.28;nan;100014.63;6136206;23;20197;-85
2023/05/08 03:30:01;;;;;;;9.83;8.93;;;;;;;8.23;nan;100017.88;6161116;23;20169;-87
2023/05/08 03:32:31;;;;;;;9.53;8.73;;;;;;;8.24;nan;100019.53;6136495;23;20167;-88
2023/05/08 03:34:59;;;;;;;9.77;8.87;;;;;;;8.35;nan;100018.22;6112222;23;20166;-86
2023/05/08 03:37:29;;;;;;;9.63;8.73;;;;;;;8.43;nan;100015.38;6135962;23;20212;-88
2023/05/08 03:39:56;;;;;;;9.97;8.77;;;;;;;8.34;nan;100011.22;6136416;23;20170;-86
2023/05/08 03:42:24;;;;;;;9.57;8.67;;;;;;;8.45;nan;100018.66;6161109;23;20166;-85
2023/05/08 03:44:51;;;;;;;9.53;8.63;;;;;;;8.39;nan;100017.63;6136261;23;20253;-86
2023/05/08 03:47:19;;;;;;;9.97;8.97;;;;;;;8.51;nan;100017.88;6136222;23;20166;-87
2023/05/08 03:49:48;;;;;;;9.20;8.40;;;;;;;8.66;nan;100020.44;6136666;23;20162;-86
2023/05/08 03:52:16;;;;;;;10.07;9.17;;;;;;;9.05;nan;100025.13;6112502;23;20197;-85
2023/05/08 03:54:43;;;;;;;9.60;8.77;;;;;;;9.22;nan;100016.56;6136661;23;20204;-86
2023/05/08 03:57:10;;;;;;;9.80;8.90;;;;;;;9.24;nan;100014.50;6136529;23;20170;-86
2023/05/08 03:59:46;;;;;;;9.63;8.73;;;;;;;9.42;nan;100016.63;6136258;23;20192;-87
2023/05/08 04:02:18;;;;;;;8.93;8.10;;;;;;;9.43;nan;100020.09;6111977;23;20176;-86
2023/05/08 04:04:47;;;;;;;8.93;8.13;;;;;;;9.09;nan;100024.53;6160608;23;20910;-84
2023/05/08 04:07:34;;;;;;;8.90;8.00;;;;;;;8.93;nan;100024.03;6136499;23;20170;-90
2023/05/08 04:10:06;;;;;;;9.10;8.30;;;;;;;8.96;nan;100029.00;6136699;23;20170;-87
2023/05/08 04:12:39;;;;;;;9.30;8.43;;;;;;;8.88;nan;100031.84;6136455;23;20172;-84
2023/05/08 04:15:22;;;;;;;8.50;7.73;;;;;;;8.86;nan;100034.72;6112447;23;20175;-86
2023/05/08 04:17:58;;;;;;;9.70;8.80;;;;;;;8.73;nan;100039.97;6136273;23;20194;-87
2023/05/08 04:20:26;;;;;;;8.63;7.83;;;;;;;8.76;nan;100037.75;6136749;23;20649;-88
2023/05/08 04:22:54;;;;;;;8.37;7.63;;;;;;;8.76;nan;100040.44;6161199;23;20174;-86
2023/05/08 04:25:23;;;;;;;9.03;8.13;;;;;;;8.71;nan;100034.84;6136517;23;20198;-88
2023/05/08 04:27:52;;;;;;;9.20;8.30;;;;;;;8.84;nan;100048.28;6136606;23;20229;-85
2023/05/08 04:30:20;;;;;;;8.27;7.57;;;;;;;8.78;nan;100049.06;6112618;23;20225;-86
2023/05/08 04:32:48;;;;;;;10.87;8.63;;;;;;;8.91;nan;100053.66;6112180;23;20173;-86
2023/05/08 04:35:15;;;;;;;9.43;8.30;;;;;;;8.97;nan;100062.72;6111790;23;20316;-87
2023/05/08 04:37:44;;;;;;;8.33;7.53;;;;;;;8.92;nan;100049.94;6136037;23;20189;-86
2023/05/08 04:40:11;;;;;;;7.67;6.97;;;;;;;8.91;nan;100059.00;6135714;23;20180;-84
2023/05/08 04:42:41;;;;;;;8.13;7.33;;;;;;;9.11;nan;100053.72;6136154;23;20170;-87
2023/05/08 04:45:09;;;;;;;7.67;6.87;;;;;;;9.13;nan;100057.84;6136105;23;20212;-85
2023/05/08 04:47:36;;;;;;;7.73;7.00;;;;;;;9.28;nan;100060.38;6135888;23;20185;-88
2023/05/08 04:50:04;;;;;;;7.50;6.80;;;;;;;9.23;nan;100058.31;6112390;23;20166;-86
2023/05/08 04:52:33;;;;;;;10.17;7.60;;;;;;;9.35;nan;100053.19;6112712;23;20189;-86
2023/05/08 04:55:00;;;;;;;7.97;7.23;;;;;;;9.45;nan;100060.84;6135918;23;20235;-88
2023/05/08 04:57:28;;;;;;;8.00;7.30;;;;;;;9.42;nan;100063.91;6136350;23;20221;-87
2023/05/08 04:59:55;;;;;;;7.97;7.17;;;;;;;9.57;nan;100070.72;6113481;23;20678;-86
2023/05/08 05:02:24;;;;;;;8.43;7.70;;;;;;;9.62;nan;100076.31;6113805;23;20174;-86
2023/05/08 05:04:51;;;;;;;8.03;7.33;;;;;;;9.52;nan;100073.19;6138431;23;20193;-87
2023/05/08 05:07:19;;;;;;;7.47;6.77;;;;;;;9.49;nan;100078.13;6113862;23;20170;-87
2023/05/08 05:09:46;;;;;;;7.83;7.13;;;;;;;9.63;nan;100080.63;6138097;23;20177;-87
2023/05/08 05:12:13;;;;;;;8.07;7.23;;;;;;;9.62;nan;100086.19;6113893;23;20173;-88
2023/05/08 05:14:40;;;;;;;7.90;7.10;;;;;;;9.64;nan;100087.63;6113799;23;20253;-86
2023/05/08 05:17:07;;;;;;;7.67;7.00;;;;;;;9.75;nan;100085.41;6113463;23;20178;-86
2023/05/08 05:19:33;;;;;;;8.43;7.60;;;;;;;9.64;nan;100092.16;6137705;23;20182;-85
2023/05/08 05:22:00;;;;;;;8.00;7.30;;;;;;;9.43;nan;100090.44;6113580;23;20177;-87
2023/05/08 05:24:28;;;;;;;8.43;7.63;;;;;;;9.44;nan;100080.56;6144383;23;20202;-87
2023/05/08 05:26:56;;;;;;;8.20;7.40;;;;;;;9.46;nan;100089.22;6162700;23;20163;-86
2023/05/08 05:29:23;;;;;;;8.23;7.43;;;;;;;9.62;nan;100084.34;6137679;23;20669;-86
2023/05/08 05:31:50;;;;;;;7.73;6.93;;;;;;;9.56;nan;100087.00;6138794;23;20181;-86
2023/05/08 05:34:17;;;;;;;8.57;7.70;;;;;;;9.83;nan;100091.38;6162389;23;20170;-87
2023/05/08 05:36:44;;;;;;;8.30;7.50;;;;;;;9.70;nan;100092.16;6138132;23;20170;-85
2023/05/08 05:39:10;;;;;;;8.17;7.30;;;;;;;9.89;nan;100092.44;6137883;23;20182;-88
2023/05/08 05:41:38;;;;;;;8.40;7.60;;;;;;;9.64;nan;100092.16;6138697;23;20623;-88
2023/05/08 05:44:05;;;;;;;8.30;7.50;;;;;;;9.82;nan;100099.59;6162246;23;20519;-86
2023/05/08 05:46:32;;;;;;;7.30;6.60;;;;;;;9.83;nan;100102.09;6162343;23;20177;-87
2023/05/08 05:49:02;;;;;;;7.80;7.07;;;;;;;9.94;nan;100106.81;6139306;23;20166;-87
2023/05/08 05:51:29;;;;;;;7.67;6.93;;;;;;;9.92;nan;100103.53;6138079;23;20170;-88
2023/05/08 05:53:56;;;;;;;7.93;7.23;;;;;;;9.94;nan;100100.63;6138202;23;20213;-86
2023/05/08 05:56:24;;;;;;;8.73;7.83;;;;;;;10.07;nan;100098.84;6138009;23;20170;-84
2023/05/08 05:58:51;;;;;;;7.63;6.93;;;;;;;10.09;nan;100095.94;6137909;23;20202;-85
2023/05/08 06:01:18;;;;;;;8.17;7.37;;;;;;;10.28;nan;100102.34;6137014;23;20241;-84
2023/05/08 06:03:45;;;;;;;7.27;6.57;;;;;;;10.04;nan;100107.25;6161105;23;20175;-83
2023/05/08 06:06:12;;;;;;;7.27;6.63;;;;;;;10.22;nan;100101.31;6161918;23;20200;-89
2023/05/08 06:08:39;;;;;;;7.40;6.70;;;;;;;10.28;nan;100111.22;6161145;23;20633;-84
2023/05/08 06:11:06;;;;;;;7.37;6.60;;;;;;;10.32;nan;100109.75;6162194;23;20169;-86
2023/05/08 06:13:32;;;;;;;7.20;6.50;;;;;;;10.51;nan;100103.56;6161694;23;20158;-84
2023/05/08 06:15:59;;;;;;;7.83;6.80;;;;;;;10.77;nan;100109.94;6136459;23;20181;-84
2023/05/08 06:18:26;;;;;;;6.43;5.93;;;;;;;10.96;nan;100111.75;6135853;23;20232;-83
2023/05/08 06:20:57;;;;;;;6.83;6.30;;;;;;;11.23;nan;100113.31;6160325;23;20170;-82
2023/05/08 06:23:24;;;;;;;6.80;6.20;;;;;;;11.38;nan;100111.16;6184926;23;20166;-84
2023/05/08 06:25:52;;;;;;;6.73;6.13;;;;;;;11.22;nan;100102.78;6159301;23;20204;-82
2023/05/08 06:28:19;;;;;;;6.97;6.27;;;;;;;11.66;nan;100105.50;6159886;23;20249;-81
2023/05/08 06:30:45;;;;;;;8.23;6.10;;;;;;;11.67;nan;100101.75;6134952;23;20174;-83
2023/05/08 06:33:12;;;;;;;6.87;5.40;;;;;;;11.63;nan;100111.28;6184275;23;20167;-82
2023/05/08 06:35:39;;;;;;;6.10;5.60;;;;;;;12.09;nan;100115.56;6159604;23;20174;-82
2023/05/08 06:38:06;;;;;;;23.77;19.97;;;;;;;11.90;nan;100112.78;6159313;23;20613;-82
2023/05/08 06:40:32;;;;;;;7.47;6.77;;;;;;;11.93;nan;100106.19;6183191;23;20169;-82
2023/05/08 06:42:59;;;;;;;6.00;5.50;;;;;;;12.29;nan;100110.88;6158272;23;20241;-81
2023/05/08 06:45:26;;;;;;;6.30;5.70;;;;;;;12.39;nan;100118.44;6183075;23;20174;-83
2023/05/08 06:47:53;;;;;;;5.73;5.13;;;;;;;12.12;nan;100110.59;6134548;23;20253;-83
2023/05/08 06:50:20;;;;;;;5.90;5.40;;;;;;;11.70;nan;100105.88;6134536;23;20178;-81
2023/05/08 06:52:47;;;;;;;6.33;5.60;;;;;;;11.99;nan;100110.66;6159479;23;20205;-84
2023/05/08 06:55:14;;;;;;;6.23;5.73;;;;;;;12.06;nan;100118.69;6158944;23;20178;-81
2023/05/08 06:57:40;;;;;;;6.93;5.60;;;;;;;12.04;nan;100110.03;6159444;23;20169;-82
2023/05/08 07:00:08;;;;;;;5.90;5.40;;;;;;;11.50;nan;100116.72;6159109;23;20190;-84
2023/05/08 07:02:35;;;;;;;6.20;5.37;;;;;;;11.46;nan;100107.44;6135606;23;20222;-83
2023/05/08 07:05:02;;;;;;;5.43;4.93;;;;;;;11.73;nan;100108.97;6159242;23;20173;-82
2023/05/08 07:07:29;;;;;;;5.80;5.30;;;;;;;12.13;nan;100114.91;6134320;23;20174;-82
2023/05/08 07:09:56;;;;;;;5.87;5.37;;;;;;;12.38;nan;100117.63;6158575;23;20873;-81
2023/05/08 07:12:22;;;;;;;5.57;5.07;;;;;;;12.46;nan;100114.63;6159594;23;20158;-82
2023/05/08 07:14:49;;;;;;;5.97;5.47;;;;;;;12.98;nan;100112.47;6158516;23;20171;-83
2023/05/08 07:17:16;;;;;;;5.87;5.27;;;;;;;13.04;nan;100108.91;6134393;23;20170;-82
2023/05/08 07:19:43;;;;;;;5.77;5.27;;;;;;;13.28;nan;100110.75;6133812;23;20196;-83
2023/05/08 07:22:10;;;;;;;5.60;5.10;;;;;;;13.39;nan;100111.84;6158465;23;20181;-81
2023/05/08 07:24:36;;;;;;;5.43;5.03;;;;;;;13.27;nan;100109.09;6133737;23;20194;-82
2023/05/08 07:27:03;;;;;;;5.47;4.80;;;;;;;13.49;nan;100117.50;6133804;23;20217;-81
2023/05/08 07:29:30;;;;;;;6.17;5.47;;;;;;;13.36;nan;100125.75;6158199;23;20163;-83
2023/05/08 07:31:57;;;;;;;6.30;4.90;;;;;;;13.45;nan;100129.78;6158999;23;20174;-81
2023/05/08 07:34:23;;;;;;;5.23;4.83;;;;;;;13.42;nan;100122.16;6134388;23;20171;-82
2023/05/08 07:36:50;;;;;;;6.00;4.70;;;;;;;13.49;nan;100133.66;6157933;23;20170;-82
2023/05/08 07:39:17;;;;;;;5.63;5.13;;;;;;;13.80;nan;100133.47;6133489;23;20186;-81
2023/05/08 07:41:44;;;;;;;5.63;5.13;;;;;;;14.18;nan;100135.81;6157977;23;20174;-81
2023/05/08 07:44:12;;;;;;;5.07;4.67;;;;;;;14.50;nan;100131.81;6158455;23;20193;-81
2023/05/08 07:46:39;;;;;;;5.90;5.37;;;;;;;14.51;nan;100128.03;6181686;23;20680;-81
2023/05/08 07:49:06;;;;;;;5.43;4.93;;;;;;;14.16;nan;100129.00;6158212;23;20159;-82
2023/05/08 07:51:32;;;;;;;5.07;4.57;;;;;;;14.29;nan;100126.91;6157770;23;20177;-81
2023/05/08 07:53:59;;;;;;;6.50;4.80;;;;;;;13.99;nan;100123.47;6133730;23;20170;-83
2023/05/08 07:56:27;;;;;;;5.17;4.67;;;;;;;14.46;nan;100129.81;6133843;23;20170;-81
2023/05/08 07:58:53;;;;;;;4.93;4.47;;;;;;;14.58;nan;100127.09;6158389;23;20202;-82
2023/05/08 08:01:20;;;;;;;7.37;4.90;;;;;;;14.72;nan;100126.66;6158242;23;20171;-82
2023/05/08 08:03:47;;;;;;;5.60;5.10;;;;;;;14.76;nan;100127.81;6133182;23;20656;-81
2023/05/08 08:06:14;;;;;;;4.83;4.43;;;;;;;14.80;nan;100133.56;6182937;23;20163;-81
2023/05/08 08:08:41;;;;;;;5.67;5.10;;;;;;;14.62;nan;100130.97;6133125;23;20166;-81
2023/05/08 08:11:08;;;;;;;5.67;5.17;;;;;;;14.45;nan;100122.78;6157732;23;20178;-82
2023/05/08 08:13:34;;;;;;;5.20;4.80;;;;;;;13.83;nan;100124.91;6158053;23;20174;-82
2023/05/08 08:16:03;;;;;;;5.60;5.10;;;;;;;13.98;nan;100127.19;6182233;23;20178;-82
2023/05/08 08:18:33;;;;;;;5.70;5.20;;;;;;;14.30;nan;100122.34;6182507;23;20166;-83
2023/05/08 08:21:00;;;;;;;5.57;4.87;;;;;;;14.40;nan;100130.72;6133586;23;20694;-84
2023/05/08 08:23:27;;;;;;;5.63;5.10;;;;;;;15.27;nan;100128.94;6133769;23;20632;-81
2023/05/08 08:25:54;;;;;;;6.27;4.97;;;;;;;15.39;nan;100135.97;6133133;23;20718;-83
2023/05/08 08:28:21;;;;;;;4.90;4.50;;;;;;;15.05;nan;100128.75;6109319;23;20175;-85
2023/05/08 08:30:48;;;;;;;6.70;5.07;;;;;;;14.74;nan;100129.13;6133205;23;20194;-82
2023/05/08 08:33:14;;;;;;;5.23;4.30;;;;;;;14.74;nan;100124.56;6108954;23;20244;-82
2023/05/08 08:35:44;;;;;;;5.03;4.63;;;;;;;14.91;nan;100122.78;6158014;23;20171;-81
2023/05/08 08:38:11;;;;;;;5.27;4.73;;;;;;;14.98;nan;100125.34;6157630;23;20190;-82
2023/05/08 08:40:41;;;;;;;5.07;4.67;;;;;;;14.37;nan;100131.19;6109030;23;20190;-82
2023/05/08 08:43:08;;;;;;;5.50;5.00;;;;;;;14.98;nan;100136.94;6182266;23;20167;-82
2023/05/08 08:45:36;;;;;;;5.63;5.13;;;;;;;14.84;nan;100132.84;6133880;23;20167;-81
2023/05/08 08:48:03;;;;;;;6.53;5.10;;;;;;;14.38;nan;100132.81;6108719;23;20176;-82
2023/05/08 08:50:31;;;;;;;5.60;5.00;;;;;;;14.33;nan;100130.78;6182236;23;20167;-81
2023/05/08 08:53:00;;;;;;;5.20;4.80;;;;;;;14.61;nan;100132.03;6132824;23;20623;-81
2023/05/08 08:55:28;;;;;;;5.37;4.90;;;;;;;14.74;nan;100129.13;6133433;23;20167;-81
2023/05/08 08:58:05;;;;;;;5.77;4.90;;;;;;;14.66;nan;100132.16;6132827;23;20199;-84
2023/05/08 09:00:32;;;;;;;5.73;5.13;;;;;;;14.79;nan;100132.72;6182532;23;20181;-81
2023/05/08 09:02:59;;;;;;;5.00;4.60;;;;;;;15.50;nan;100131.56;6133682;23;20156;-82
2023/05/08 09:05:27;;;;;;;5.60;4.90;;;;;;;15.48;nan;100130.19;6133415;23;20175;-82
2023/05/08 09:07:54;;;;;;;5.10;4.70;;;;;;;15.62;nan;100131.59;6157736;23;20630;-81
2023/05/08 09:10:23;;;;;;;5.23;4.83;;;;;;;15.88;nan;100124.78;6133119;23;20686;-81
2023/05/08 09:12:49;;;;;;;5.33;4.93;;;;;;;15.15;nan;100128.16;6133311;23;20167;-81
2023/05/08 09:15:16;;;;;;;5.50;5.10;;;;;;;15.58;nan;100117.75;6133345;23;20508;-81
2023/05/08 09:17:43;;;;;;;7.47;5.57;;;;;;;14.68;nan;100116.56;6133234;23;20168;-83
2023/05/08 09:20:10;;;;;;;5.90;5.40;;;;;;;16.16;nan;100122.84;6132631;23;20206;-82
2023/05/08 09:22:37;;;;;;;7.00;5.47;;;;;;;15.91;nan;100121.59;6133370;23;20202;-81
2023/05/08 09:25:05;;;;;;;5.20;4.80;;;;;;;16.93;nan;100122.22;6132475;23;20233;-81
2023/05/08 09:27:32;;;;;;;5.40;4.90;;;;;;;17.36;nan;100116.81;6157796;23;20185;-81
2023/05/08 09:30:05;;;;;;;5.57;5.07;;;;;;;17.20;nan;100115.00;6133166;23;20199;-81
2023/05/08 09:32:34;;;;;;;5.83;5.00;;;;;;;16.60;nan;100107.69;6133153;23;20169;-81
2023/05/08 09:35:01;;;;;;;5.90;5.30;;;;;;;16.64;nan;100111.53;6132973;23;20196;-82
2023/05/08 09:37:28;;;;;;;5.80;5.37;;;;;;;16.40;nan;100114.59;6108754;23;20173;-81
2023/05/08 09:40:19;;;;;;;5.27;4.77;;;;;;;16.47;nan;100120.69;6132944;23;20218;-81
2023/05/08 09:42:48;;;;;;;5.10;4.70;;;;;;;16.32;nan;100110.44;6109080;23;20167;-81
2023/05/08 09:45:29;;;;;;;5.60;5.10;;;;;;;16.02;nan;100110.72;6132893;23;20639;-83
2023/05/08 09:47:56;;;;;;;5.50;5.10;;;;;;;16.21;nan;100108.63;6110780;23;20268;-82
2023/05/08 09:50:24;;;;;;;7.27;5.40;;;;;;;15.99;nan;100105.81;6135491;23;20168;-83
2023/05/08 09:52:51;;;;;;;6.00;5.40;;;;;;;16.22;nan;100104.84;6135210;23;20208;-81
2023/05/08 09:55:18;;;;;;;7.13;5.37;;;;;;;16.23;nan;100104.63;6134575;23;20172;-83
2023/05/08 09:57:56;;;;;;;5.33;4.83;;;;;;;16.21;nan;100112.13;6110869;23;20177;-81
2023/05/08 10:00:25;;;;;;;5.30;4.90;;;;;;;16.29;nan;100100.09;6134517;23;20263;-81
2023/05/08 10:02:59;;;;;;;5.70;5.20;;;;;;;15.66;nan;100105.72;6134921;23;20621;-82
2023/05/08 10:05:28;;;;;;;5.97;5.43;;;;;;;16.04;nan;100103.19;6134911;23;20993;-82
2023/05/08 10:07:56;;;;;;;6.07;5.23;;;;;;;16.69;nan;100106.19;6135232;23;20166;-82
2023/05/08 10:10:28;;;;;;;6.03;5.53;;;;;;;16.23;nan;100096.50;6134720;23;20181;-82
2023/05/08 10:12:57;;;;;;;6.20;5.70;;;;;;;16.21;nan;100101.31;6110583;23;20192;-81
2023/05/08 10:15:27;;;;;;;5.20;4.80;;;;;;;16.55;nan;100096.75;6159606;23;20162;-81
2023/05/08 10:18:02;;;;;;;5.40;4.90;;;;;;;16.17;nan;100091.25;6135012;23;20173;-81
2023/05/08 10:20:30;;;;;;;6.00;5.50;;;;;;;16.38;nan;100095.91;6110662;23;20236;-81
2023/05/08 10:22:57;;;;;;;6.00;5.50;;;;;;;15.75;nan;100093.47;6134662;23;20225;-81
2023/05/08 10:25:25;;;;;;;5.40;5.00;;;;;;;16.53;nan;100092.63;6150956;23;20279;-81
2023/05/08 10:28:17;;;;;;;5.60;5.17;;;;;;;17.07;nan;100091.03;6133890;23;20624;-81
2023/05/08 10:30:47;;;;;;;5.50;5.10;;;;;;;16.21;nan;100084.28;6159474;23;20159;-82
2023/05/08 10:33:19;;;;;;;5.40;5.00;;;;;;;16.78;nan;100071.41;6159904;23;20567;-81
2023/05/08 10:35:46;;;;;;;5.93;5.30;;;;;;;16.86;nan;100078.25;6134740;23;20260;-82
2023/05/08 10:38:14;;;;;;;5.40;4.90;;;;;;;16.52;nan;100080.16;6134584;23;20173;-81
2023/05/08 10:40:41;;;;;;;6.27;5.07;;;;;;;16.91;nan;100072.91;6159130;23;20189;-82
2023/05/08 10:43:09;;;;;;;5.80;5.33;;;;;;;16.20;nan;100069.94;6159172;23;20225;-83
2023/05/08 10:45:36;;;;;;;5.63;5.13;;;;;;;16.27;nan;100059.81;6159323;23;20179;-82
2023/05/08 10:48:27;;;;;;;5.10;4.70;;;;;;;17.49;nan;100067.72;6158750;23;20175;-82
2023/05/08 10:51:02;;;;;;;7.07;5.30;;;;;;;17.57;nan;100061.00;6158692;23;20252;-81
2023/05/08 10:53:38;;;;;;;6.63;5.30;;;;;;;16.06;nan;100065.91;6158864;23;20628;-82
2023/05/08 10:56:05;;;;;;;6.03;5.43;;;;;;;16.27;nan;100059.81;6159168;23;20149;-82
2023/05/08 10:58:33;;;;;;;6.47;5.87;;;;;;;16.51;nan;100057.72;6158798;23;20197;-81
2023/05/08 11:01:00;;;;;;;7.40;5.37;;;;;;;17.30;nan;100049.34;6134380;23;20280;-83
2023/05/08 11:03:30;;;;;;;5.07;4.63;;;;;;;17.68;nan;100043.00;6158576;23;20167;-82
2023/05/08 11:06:00;;;;;;;4.80;4.50;;;;;;;17.41;nan;100054.59;6135284;23;20155;-82
2023/05/08 11:08:29;;;;;;;5.37;4.93;;;;;;;17.25;nan;100050.09;6158773;23;20167;-82
2023/05/08 11:10:59;;;;;;;5.70;4.83;;;;;;;17.75;nan;100046.31;6134484;23;20223;-83
2023/05/08 11:13:37;;;;;;;6.33;4.83;;;;;;;17.10;nan;100041.78;6183461;23;20185;-82
2023/05/08 11:16:09;;;;;;;6.03;4.93;;;;;;;16.78;nan;100040.81;6134359;23;20249;-81
2023/05/08 11:18:36;;;;;;;5.67;5.10;;;;;;;16.91;nan;100048.56;6183523;23;20151;-81
2023/05/08 11:21:20;;;;;;;5.77;5.37;;;;;;;17.19;nan;100042.97;6161438;23;20253;-82
2023/05/08 11:23:55;;;;;;;6.07;5.47;;;;;;;16.94;nan;100034.53;6134444;23;20170;-83
2023/05/08 11:26:38;;;;;;;10.07;5.77;;;;;;;17.88;nan;100024.19;6134468;23;20165;-83
2023/05/08 11:29:15;;;;;;;8.63;7.83;;;;;;;18.56;nan;100026.13;6158591;23;20159;-82
2023/05/08 11:31:49;;;;;;;6.77;6.27;;;;;;;18.21;nan;100025.84;6134222;23;20158;-82
2023/05/08 11:34:40;;;;;;;5.17;4.77;;;;;;;18.27;nan;100025.63;6133753;23;20170;-81
2023/05/08 11:37:22;;;;;;;19.83;17.77;;;;;;;18.04;nan;100024.09;6133622;23;20174;-82
2023/05/08 11:39:49;;;;;;;5.90;5.30;;;;;;;17.81;nan;100023.63;6133611;23;20190;-82
2023/05/08 11:42:28;;;;;;;6.00;5.60;;;;;;;18.12;nan;100019.25;6133835;23;20255;-82
2023/05/08 11:45:04;;;;;;;6.43;5.83;;;;;;;18.62;nan;100026.94;6158567;23;20166;-81
2023/05/08 11:47:37;;;;;;;5.20;4.80;;;;;;;18.87;nan;100027.09;6133955;23;20170;-81
2023/05/08 11:50:05;;;;;;;13.60;10.70;;;;;;;18.63;nan;100026.69;6109599;23;20159;-82
2023/05/08 11:52:36;;;;;;;14.60;13.23;;;;;;;18.53;nan;100026.63;6110325;23;20174;-82
2023/05/08 11:55:05;;;;;;;7.53;5.67;;;;;;;17.93;nan;100018.84;6133628;23;20173;-83
2023/05/08 11:57:34;;;;;;;5.00;4.60;;;;;;;18.11;nan;100014.91;6109852;23;20178;-82
2023/05/08 12:00:10;;;;;;;7.13;5.27;;;;;;;17.95;nan;100014.81;6133204;23;20190;-81